sensor_id;sensor_type;location;lat;lon;timestamp;P1;durP1;ratioP1;P2;durP2;ratioP2
6651;SDS011;3362;50.892;10.692;2023-04-24T00:01:48;1.20;;;0.60;;
6651;SDS011;3362;50.892;10.692;2023-04-24T00:04:15;1.25;;;0.50;;
6651;SDS011;3362;50.892;10.692;2023-04-24T00:06:42;0.82;;;0.60;;
6651;SDS011;3362;50.892;10.692;2023-04-24T00:09:08;1.13;;;0.75;;
6651;SDS011;3362;50.892;10.692;2023-04-24T00:11:36;1.27;;;0.70;;
6651;SDS011;3362;50.892;10.692;2023-04-24T00:14:02;1.95;;;0.45;;
6651;SDS011;3362;50.892;10.692;2023-04-24T00:16:29;0.47;;;0.45;;
6651;SDS011;3362;50.892;10.692;2023-04-24T00:18:55;0.85;;;0.40;;
6651;SDS011;3362;50.892;10.692;2023-04-24T00:21:21;1.02;;;0.60;;
6651;SDS011;3362;50.892;10.692;2023-04-24T00:23:50;1.90;;;0.52;;
6651;SDS011;3362;50.892;10.692;2023-04-24T00:26:16;0.45;;;0.45;;
6651;SDS011;3362;50.892;10.692;2023-04-24T00:28:44;0.70;;;0.60;;
6651;SDS011;3362;50.892;10.692;2023-04-24T00:31:10;0.45;;;0.45;;
6651;SDS011;3362;50.892;10.692;2023-04-24T00:33:36;1.75;;;0.63;;
6651;SDS011;3362;50.892;10.692;2023-04-24T00:36:03;0.35;;;0.35;;
6651;SDS011;3362;50.892;10.692;2023-04-24T00:38:29;0.52;;;0.43;;
6651;SDS011;3362;50.892;10.692;2023-04-24T00:40:55;0.47;;;0.32;;
6651;SDS011;3362;50.892;10.692;2023-04-24T00:43:21;0.38;;;0.32;;
6651;SDS011;3362;50.892;10.692;2023-04-24T00:45:49;3.60;;;0.82;;
6651;SDS011;3362;50.892;10.692;2023-04-24T00:48:15;0.43;;;0.35;;
6651;SDS011;3362;50.892;10.692;2023-04-24T00:50:42;2.25;;;0.60;;
6651;SDS011;3362;50.892;10.692;2023-04-24T00:53:08;0.90;;;0.63;;
6651;SDS011;3362;50.892;10.692;2023-04-24T00:55:34;3.38;;;0.70;;
6651;SDS011;3362;50.892;10.692;2023-04-24T00:58:02;0.70;;;0.70;;
6651;SDS011;3362;50.892;10.692;2023-04-24T01:00:28;0.80;;;0.60;;
6651;SDS011;3362;50.892;10.692;2023-04-24T01:02:56;1.25;;;0.50;;
6651;SDS011;3362;50.892;10.692;2023-04-24T01:05:23;1.50;;;0.30;;
6651;SDS011;3362;50.892;10.692;2023-04-24T01:07:50;1.15;;;0.55;;
6651;SDS011;3362;50.892;10.692;2023-04-24T01:10:16;0.50;;;0.50;;
6651;SDS011;3362;50.892;10.692;2023-04-24T01:12:43;0.77;;;0.47;;
6651;SDS011;3362;50.892;10.692;2023-04-24T01:15:09;0.75;;;0.65;;
6651;SDS011;3362;50.892;10.692;2023-04-24T01:17:36;0.57;;;0.57;;
6651;SDS011;3362;50.892;10.692;2023-04-24T01:20:05;0.40;;;0.40;;
6651;SDS011;3362;50.892;10.692;2023-04-24T01:22:33;0.68;;;0.43;;
6651;SDS011;3362;50.892;10.692;2023-04-24T01:25:00;0.40;;;0.40;;
6651;SDS011;3362;50.892;10.692;2023-04-24T01:27:26;1.75;;;0.60;;
6651;SDS011;3362;50.892;10.692;2023-04-24T01:29:52;0.40;;;0.40;;
6651;SDS011;3362;50.892;10.692;2023-04-24T01:32:19;0.45;;;0.30;;
6651;SDS011;3362;50.892;10.692;2023-04-24T01:34:45;0.73;;;0.55;;
6651;SDS011;3362;50.892;10.692;2023-04-24T01:37:12;0.82;;;0.75;;
6651;SDS011;3362;50.892;10.692;2023-04-24T01:39:40;0.50;;;0.50;;
6651;SDS011;3362;50.892;10.692;2023-04-24T01:42:06;0.40;;;0.40;;
6651;SDS011;3362;50.892;10.692;2023-04-24T01:44:33;0.73;;;0.65;;
6651;SDS011;3362;50.892;10.692;2023-04-24T01:47:00;0.70;;;0.50;;
6651;SDS011;3362;50.892;10.692;2023-04-24T01:49:26;0.75;;;0.50;;
6651;SDS011;3362;50.892;10.692;2023-04-24T01:51:52;1.10;;;0.82;;
6651;SDS011;3362;50.892;10.692;2023-04-24T01:54:18;0.90;;;0.70;;
6651;SDS011;3362;50.892;10.692;2023-04-24T01:56:46;0.90;;;0.70;;
6651;SDS011;3362;50.892;10.692;2023-04-24T01:59:13;2.22;;;0.60;;
6651;SDS011;3362;50.892;10.692;2023-04-24T02:01:39;0.65;;;0.55;;
6651;SDS011;3362;50.892;10.692;2023-04-24T02:04:06;1.65;;;0.80;;
6651;SDS011;3362;50.892;10.692;2023-04-24T02:06:33;1.00;;;0.63;;
6651;SDS011;3362;50.892;10.692;2023-04-24T02:08:59;0.60;;;0.60;;
6651;SDS011;3362;50.892;10.692;2023-04-24T02:11:26;0.90;;;0.90;;
6651;SDS011;3362;50.892;10.692;2023-04-24T02:13:53;0.60;;;0.60;;
6651;SDS011;3362;50.892;10.692;2023-04-24T02:16:20;1.17;;;1.05;;
6651;SDS011;3362;50.892;10.692;2023-04-24T02:18:46;1.73;;;0.90;;
6651;SDS011;3362;50.892;10.692;2023-04-24T02:21:12;1.10;;;0.80;;
6651;SDS011;3362;50.892;10.692;2023-04-24T02:23:38;1.33;;;1.05;;
6651;SDS011;3362;50.892;10.692;2023-04-24T02:26:05;4.90;;;1.05;;
6651;SDS011;3362;50.892;10.692;2023-04-24T02:28:31;1.27;;;0.80;;
6651;SDS011;3362;50.892;10.692;2023-04-24T02:30:59;2.33;;;0.63;;
6651;SDS011;3362;50.892;10.692;2023-04-24T02:33:25;1.60;;;0.73;;
6651;SDS011;3362;50.892;10.692;2023-04-24T02:35:51;1.33;;;0.90;;
6651;SDS011;3362;50.892;10.692;2023-04-24T02:38:17;0.43;;;0.43;;
6651;SDS011;3362;50.892;10.692;2023-04-24T02:40:44;1.05;;;0.55;;
6651;SDS011;3362;50.892;10.692;2023-04-24T02:43:10;0.98;;;0.80;;
6651;SDS011;3362;50.892;10.692;2023-04-24T02:45:36;4.15;;;1.13;;
6651;SDS011;3362;50.892;10.692;2023-04-24T02:48:04;1.08;;;0.80;;
6651;SDS011;3362;50.892;10.692;2023-04-24T02:50:31;0.73;;;0.63;;
6651;SDS011;3362;50.892;10.692;2023-04-24T02:52:58;1.45;;;0.90;;
6651;SDS011;3362;50.892;10.692;2023-04-24T02:55:24;0.80;;;0.63;;
6651;SDS011;3362;50.892;10.692;2023-04-24T02:57:50;1.23;;;0.70;;
6651;SDS011;3362;50.892;10.692;2023-04-24T03:00:17;1.65;;;0.90;;
6651;SDS011;3362;50.892;10.692;2023-04-24T03:02:43;0.70;;;0.68;;
6651;SDS011;3362;50.892;10.692;2023-04-24T03:05:11;0.77;;;0.70;;
6651;SDS011;3362;50.892;10.692;2023-04-24T03:07:37;0.98;;;0.88;;
6651;SDS011;3362;50.892;10.692;2023-04-24T03:10:04;1.00;;;0.98;;
6651;SDS011;3362;50.892;10.692;2023-04-24T03:12:30;1.98;;;0.63;;
6651;SDS011;3362;50.892;10.692;2023-04-24T03:14:57;0.50;;;0.50;;
6651;SDS011;3362;50.892;10.692;2023-04-24T03:17:23;1.23;;;0.80;;
6651;SDS011;3362;50.892;10.692;2023-04-24T03:19:49;0.80;;;0.80;;
6651;SDS011;3362;50.892;10.692;2023-04-24T03:22:17;0.98;;;0.60;;
6651;SDS011;3362;50.892;10.692;2023-04-24T03:24:43;0.52;;;0.50;;
6651;SDS011;3362;50.892;10.692;2023-04-24T03:27:09;1.13;;;1.02;;
6651;SDS011;3362;50.892;10.692;2023-04-24T03:29:35;0.60;;;0.50;;
6651;SDS011;3362;50.892;10.692;2023-04-24T03:32:01;0.60;;;0.55;;
6651;SDS011;3362;50.892;10.692;2023-04-24T03:34:28;1.00;;;0.68;;
6651;SDS011;3362;50.892;10.692;2023-04-24T03:36:54;0.52;;;0.52;;
6651;SDS011;3362;50.892;10.692;2023-04-24T03:39:21;0.95;;;0.68;;
6651;SDS011;3362;50.892;10.692;2023-04-24T03:41:47;1.65;;;0.80;;
6651;SDS011;3362;50.892;10.692;2023-04-24T03:44:14;1.15;;;0.77;;
6651;SDS011;3362;50.892;10.692;2023-04-24T03:46:40;0.80;;;0.50;;
6651;SDS011;3362;50.892;10.692;2023-04-24T03:49:06;2.42;;;0.60;;
6651;SDS011;3362;50.892;10.692;2023-04-24T03:51:32;0.70;;;0.70;;
6651;SDS011;3362;50.892;10.692;2023-04-24T03:53:58;3.45;;;0.82;;
6651;SDS011;3362;50.892;10.692;2023-04-24T03:56:26;2.97;;;1.00;;
6651;SDS011;3362;50.892;10.692;2023-04-24T03:58:52;0.82;;;0.50;;
6651;SDS011;3362;50.892;10.692;2023-04-24T04:01:18;0.47;;;0.47;;
6651;SDS011;3362;50.892;10.692;2023-04-24T04:03:45;3.45;;;0.88;;
6651;SDS011;3362;50.892;10.692;2023-04-24T04:06:11;1.85;;;0.60;;
6651;SDS011;3362;50.892;10.692;2023-04-24T04:08:38;5.28;;;0.70;;
6651;SDS011;3362;50.892;10.692;2023-04-24T04:11:04;1.27;;;0.55;;
6651;SDS011;3362;50.892;10.692;2023-04-24T04:13:31;1.13;;;0.75;;
6651;SDS011;3362;50.892;10.692;2023-04-24T04:15:58;1.25;;;0.70;;
6651;SDS011;3362;50.892;10.692;2023-04-24T04:18:24;0.85;;;0.47;;
6651;SDS011;3362;50.892;10.692;2023-04-24T04:20:50;1.27;;;0.80;;
6651;SDS011;3362;50.892;10.692;2023-04-24T04:23:16;1.27;;;0.70;;
6651;SDS011;3362;50.892;10.692;2023-04-24T04:25:42;1.58;;;0.55;;
6651;SDS011;3362;50.892;10.692;2023-04-24T04:28:09;1.30;;;0.80;;
6651;SDS011;3362;50.892;10.692;2023-04-24T04:30:36;0.93;;;0.60;;
6651;SDS011;3362;50.892;10.692;2023-04-24T04:33:03;1.00;;;0.60;;
6651;SDS011;3362;50.892;10.692;2023-04-24T04:35:29;0.30;;;0.30;;
6651;SDS011;3362;50.892;10.692;2023-04-24T04:37:55;0.93;;;0.60;;
6651;SDS011;3362;50.892;10.692;2023-04-24T04:40:23;1.75;;;0.50;;
6651;SDS011;3362;50.892;10.692;2023-04-24T04:42:50;0.80;;;0.70;;
6651;SDS011;3362;50.892;10.692;2023-04-24T04:45:17;0.77;;;0.50;;
6651;SDS011;3362;50.892;10.692;2023-04-24T04:47:46;1.45;;;0.88;;
6651;SDS011;3362;50.892;10.692;2023-04-24T04:50:13;3.22;;;1.25;;
6651;SDS011;3362;50.892;10.692;2023-04-24T04:52:41;2.63;;;0.50;;
6651;SDS011;3362;50.892;10.692;2023-04-24T04:55:07;0.68;;;0.55;;
6651;SDS011;3362;50.892;10.692;2023-04-24T04:57:34;4.40;;;0.60;;
6651;SDS011;3362;50.892;10.692;2023-04-24T05:00:00;1.00;;;0.60;;
6651;SDS011;3362;50.892;10.692;2023-04-24T05:02:26;3.20;;;0.82;;
6651;SDS011;3362;50.892;10.692;2023-04-24T05:04:54;0.63;;;0.57;;
6651;SDS011;3362;50.892;10.692;2023-04-24T05:07:20;2.58;;;0.75;;
6651;SDS011;3362;50.892;10.692;2023-04-24T05:09:46;1.20;;;0.60;;
6651;SDS011;3362;50.892;10.692;2023-04-24T05:12:13;0.75;;;0.70;;
6651;SDS011;3362;50.892;10.692;2023-04-24T05:14:39;1.15;;;0.82;;
6651;SDS011;3362;50.892;10.692;2023-04-24T05:17:05;0.73;;;0.70;;
6651;SDS011;3362;50.892;10.692;2023-04-24T05:19:31;2.90;;;0.60;;
6651;SDS011;3362;50.892;10.692;2023-04-24T05:22:02;0.82;;;0.80;;
6651;SDS011;3362;50.892;10.692;2023-04-24T05:24:31;1.25;;;0.70;;
6651;SDS011;3362;50.892;10.692;2023-04-24T05:26:57;2.05;;;0.70;;
6651;SDS011;3362;50.892;10.692;2023-04-24T05:29:24;0.95;;;0.50;;
6651;SDS011;3362;50.892;10.692;2023-04-24T05:31:51;1.55;;;0.70;;
6651;SDS011;3362;50.892;10.692;2023-04-24T05:34:17;1.42;;;0.77;;
6651;SDS011;3362;50.892;10.692;2023-04-24T05:36:43;0.40;;;0.40;;
6651;SDS011;3362;50.892;10.692;2023-04-24T05:39:11;0.35;;;0.35;;
6651;SDS011;3362;50.892;10.692;2023-04-24T05:41:38;0.50;;;0.40;;
6651;SDS011;3362;50.892;10.692;2023-04-24T05:44:04;0.93;;;0.52;;
6651;SDS011;3362;50.892;10.692;2023-04-24T05:46:30;2.67;;;0.40;;
6651;SDS011;3362;50.892;10.692;2023-04-24T05:48:56;0.50;;;0.50;;
6651;SDS011;3362;50.892;10.692;2023-04-24T05:51:23;0.52;;;0.50;;
6651;SDS011;3362;50.892;10.692;2023-04-24T05:53:49;0.82;;;0.57;;
6651;SDS011;3362;50.892;10.692;2023-04-24T05:56:16;0.90;;;0.70;;
6651;SDS011;3362;50.892;10.692;2023-04-24T05:58:43;0.95;;;0.50;;
6651;SDS011;3362;50.892;10.692;2023-04-24T06:01:09;2.40;;;1.48;;
6651;SDS011;3362;50.892;10.692;2023-04-24T06:03:37;2.67;;;0.70;;
6651;SDS011;3362;50.892;10.692;2023-04-24T06:06:04;0.68;;;0.50;;
6651;SDS011;3362;50.892;10.692;2023-04-24T06:08:31;0.40;;;0.40;;
6651;SDS011;3362;50.892;10.692;2023-04-24T06:10:57;1.02;;;0.60;;
6651;SDS011;3362;50.892;10.692;2023-04-24T06:13:25;0.50;;;0.50;;
6651;SDS011;3362;50.892;10.692;2023-04-24T06:15:51;0.55;;;0.50;;
6651;SDS011;3362;50.892;10.692;2023-04-24T06:18:18;3.90;;;0.75;;
6651;SDS011;3362;50.892;10.692;2023-04-24T06:20:44;1.75;;;0.85;;
6651;SDS011;3362;50.892;10.692;2023-04-24T06:23:10;0.73;;;0.50;;
6651;SDS011;3362;50.892;10.692;2023-04-24T06:25:37;2.35;;;0.50;;
6651;SDS011;3362;50.892;10.692;2023-04-24T06:28:03;0.50;;;0.50;;
6651;SDS011;3362;50.892;10.692;2023-04-24T06:30:31;0.40;;;0.40;;
6651;SDS011;3362;50.892;10.692;2023-04-24T06:32:57;0.75;;;0.68;;
6651;SDS011;3362;50.892;10.692;2023-04-24T06:35:23;0.80;;;0.60;;
6651;SDS011;3362;50.892;10.692;2023-04-24T06:37:49;0.80;;;0.75;;
6651;SDS011;3362;50.892;10.692;2023-04-24T06:40:16;1.73;;;0.88;;
6651;SDS011;3362;50.892;10.692;2023-04-24T06:42:43;0.50;;;0.50;;
6651;SDS011;3362;50.892;10.692;2023-04-24T06:45:09;2.25;;;0.80;;
6651;SDS011;3362;50.892;10.692;2023-04-24T06:47:37;1.48;;;0.70;;
6651;SDS011;3362;50.892;10.692;2023-04-24T06:50:04;1.27;;;0.57;;
6651;SDS011;3362;50.892;10.692;2023-04-24T06:52:30;1.85;;;0.50;;
6651;SDS011;3362;50.892;10.692;2023-04-24T06:54:59;0.68;;;0.43;;
6651;SDS011;3362;50.892;10.692;2023-04-24T06:57:25;0.88;;;0.50;;
6651;SDS011;3362;50.892;10.692;2023-04-24T06:59:52;0.70;;;0.50;;
6651;SDS011;3362;50.892;10.692;2023-04-24T07:02:18;1.48;;;0.70;;
6651;SDS011;3362;50.892;10.692;2023-04-24T07:04:46;2.05;;;0.73;;
6651;SDS011;3362;50.892;10.692;2023-04-24T07:07:12;0.52;;;0.50;;
6651;SDS011;3362;50.892;10.692;2023-04-24T07:09:39;2.35;;;0.50;;
6651;SDS011;3362;50.892;10.692;2023-04-24T07:12:07;0.90;;;0.70;;
6651;SDS011;3362;50.892;10.692;2023-04-24T07:14:33;0.57;;;0.50;;
6651;SDS011;3362;50.892;10.692;2023-04-24T07:16:59;0.68;;;0.60;;
6651;SDS011;3362;50.892;10.692;2023-04-24T07:19:26;0.47;;;0.30;;
6651;SDS011;3362;50.892;10.692;2023-04-24T07:21:53;3.60;;;0.55;;
6651;SDS011;3362;50.892;10.692;2023-04-24T07:24:20;0.88;;;0.60;;
6651;SDS011;3362;50.892;10.692;2023-04-24T07:26:46;2.05;;;0.40;;
6651;SDS011;3362;50.892;10.692;2023-04-24T07:29:13;0.80;;;0.47;;
6651;SDS011;3362;50.892;10.692;2023-04-24T07:31:39;0.50;;;0.50;;
6651;SDS011;3362;50.892;10.692;2023-04-24T07:34:06;1.40;;;0.40;;
6651;SDS011;3362;50.892;10.692;2023-04-24T07:36:32;0.50;;;0.50;;
6651;SDS011;3362;50.892;10.692;2023-04-24T07:38:59;1.23;;;0.77;;
6651;SDS011;3362;50.892;10.692;2023-04-24T07:41:26;2.38;;;0.50;;
6651;SDS011;3362;50.892;10.692;2023-04-24T07:43:53;0.60;;;0.52;;
6651;SDS011;3362;50.892;10.692;2023-04-24T07:46:19;0.50;;;0.50;;
6651;SDS011;3362;50.892;10.692;2023-04-24T07:48:45;1.55;;;0.50;;
6651;SDS011;3362;50.892;10.692;2023-04-24T07:51:13;2.25;;;0.68;;
6651;SDS011;3362;50.892;10.692;2023-04-24T07:53:39;0.70;;;0.57;;
6651;SDS011;3362;50.892;10.692;2023-04-24T07:56:07;0.68;;;0.55;;
6651;SDS011;3362;50.892;10.692;2023-04-24T07:58:33;0.30;;;0.30;;
6651;SDS011;3362;50.892;10.692;2023-04-24T08:00:59;0.40;;;0.40;;
6651;SDS011;3362;50.892;10.692;2023-04-24T08:03:25;0.68;;;0.68;;
6651;SDS011;3362;50.892;10.692;2023-04-24T08:05:51;2.75;;;0.55;;
6651;SDS011;3362;50.892;10.692;2023-04-24T08:08:19;1.15;;;0.60;;
6651;SDS011;3362;50.892;10.692;2023-04-24T08:10:46;0.47;;;0.45;;
6651;SDS011;3362;50.892;10.692;2023-04-24T08:13:13;0.80;;;0.55;;
6651;SDS011;3362;50.892;10.692;2023-04-24T08:15:39;2.35;;;0.63;;
6651;SDS011;3362;50.892;10.692;2023-04-24T08:18:06;4.82;;;0.63;;
6651;SDS011;3362;50.892;10.692;2023-04-24T08:20:32;4.03;;;0.75;;
6651;SDS011;3362;50.892;10.692;2023-04-24T08:22:58;0.50;;;0.50;;
6651;SDS011;3362;50.892;10.692;2023-04-24T08:25:25;1.58;;;0.77;;
6651;SDS011;3362;50.892;10.692;2023-04-24T08:27:51;0.68;;;0.60;;
6651;SDS011;3362;50.892;10.692;2023-04-24T08:30:18;0.63;;;0.60;;
6651;SDS011;3362;50.892;10.692;2023-04-24T08:32:45;0.30;;;0.30;;
6651;SDS011;3362;50.892;10.692;2023-04-24T08:35:11;1.10;;;0.60;;
6651;SDS011;3362;50.892;10.692;2023-04-24T08:37:37;0.70;;;0.70;;
6651;SDS011;3362;50.892;10.692;2023-04-24T08:40:05;1.17;;;0.63;;
6651;SDS011;3362;50.892;10.692;2023-04-24T08:42:33;0.85;;;0.68;;
6651;SDS011;3362;50.892;10.692;2023-04-24T08:45:00;1.65;;;0.75;;
6651;SDS011;3362;50.892;10.692;2023-04-24T08:47:28;0.98;;;0.82;;
6651;SDS011;3362;50.892;10.692;2023-04-24T08:49:56;0.50;;;0.50;;
6651;SDS011;3362;50.892;10.692;2023-04-24T08:52:24;0.60;;;0.45;;
6651;SDS011;3362;50.892;10.692;2023-04-24T08:54:53;1.65;;;0.77;;
6651;SDS011;3362;50.892;10.692;2023-04-24T08:57:19;0.60;;;0.55;;
6651;SDS011;3362;50.892;10.692;2023-04-24T08:59:46;1.90;;;1.05;;
6651;SDS011;3362;50.892;10.692;2023-04-24T09:02:12;0.63;;;0.50;;
6651;SDS011;3362;50.892;10.692;2023-04-24T09:04:41;2.47;;;0.50;;
6651;SDS011;3362;50.892;10.692;2023-04-24T09:07:09;1.55;;;0.60;;
6651;SDS011;3362;50.892;10.692;2023-04-24T09:09:36;0.90;;;0.50;;
6651;SDS011;3362;50.892;10.692;2023-04-24T09:12:04;2.00;;;0.50;;
6651;SDS011;3362;50.892;10.692;2023-04-24T09:14:31;1.30;;;0.68;;
6651;SDS011;3362;50.892;10.692;2023-04-24T09:16:57;2.50;;;0.70;;
6651;SDS011;3362;50.892;10.692;2023-04-24T09:19:23;1.48;;;0.65;;
6651;SDS011;3362;50.892;10.692;2023-04-24T09:21:51;0.88;;;0.73;;
6651;SDS011;3362;50.892;10.692;2023-04-24T09:24:19;3.92;;;0.68;;
6651;SDS011;3362;50.892;10.692;2023-04-24T09:26:47;1.30;;;0.45;;
6651;SDS011;3362;50.892;10.692;2023-04-24T09:29:14;0.60;;;0.60;;
6651;SDS011;3362;50.892;10.692;2023-04-24T09:31:41;1.05;;;0.65;;
6651;SDS011;3362;50.892;10.692;2023-04-24T09:34:07;2.42;;;1.15;;
6651;SDS011;3362;50.892;10.692;2023-04-24T09:36:34;0.85;;;0.60;;
6651;SDS011;3362;50.892;10.692;2023-04-24T09:39:04;0.60;;;0.60;;
6651;SDS011;3362;50.892;10.692;2023-04-24T09:41:31;0.90;;;0.57;;
6651;SDS011;3362;50.892;10.692;2023-04-24T09:43:58;1.65;;;0.70;;
6651;SDS011;3362;50.892;10.692;2023-04-24T09:46:30;1.85;;;0.70;;
6651;SDS011;3362;50.892;10.692;2023-04-24T09:48:57;2.20;;;0.60;;
6651;SDS011;3362;50.892;10.692;2023-04-24T09:51:33;0.85;;;0.70;;
6651;SDS011;3362;50.892;10.692;2023-04-24T09:53:59;1.23;;;0.80;;
6651;SDS011;3362;50.892;10.692;2023-04-24T09:56:27;0.68;;;0.68;;
6651;SDS011;3362;50.892;10.692;2023-04-24T09:58:53;1.10;;;0.73;;
6651;SDS011;3362;50.892;10.692;2023-04-24T10:01:28;0.95;;;0.88;;
6651;SDS011;3362;50.892;10.692;2023-04-24T10:03:55;2.72;;;0.85;;
6651;SDS011;3362;50.892;10.692;2023-04-24T10:06:22;1.52;;;0.70;;
6651;SDS011;3362;50.892;10.692;2023-04-24T10:08:48;1.15;;;0.90;;
6651;SDS011;3362;50.892;10.692;2023-04-24T10:11:15;2.45;;;0.90;;
6651;SDS011;3362;50.892;10.692;2023-04-24T10:13:43;3.10;;;1.10;;
6651;SDS011;3362;50.892;10.692;2023-04-24T10:16:10;1.90;;;1.00;;
6651;SDS011;3362;50.892;10.692;2023-04-24T10:18:36;1.63;;;1.10;;
6651;SDS011;3362;50.892;10.692;2023-04-24T10:21:02;1.20;;;0.95;;
6651;SDS011;3362;50.892;10.692;2023-04-24T10:23:29;5.10;;;0.90;;
6651;SDS011;3362;50.892;10.692;2023-04-24T10:25:55;1.13;;;1.00;;
6651;SDS011;3362;50.892;10.692;2023-04-24T10:28:22;1.30;;;1.20;;
6651;SDS011;3362;50.892;10.692;2023-04-24T10:30:51;0.90;;;0.80;;
6651;SDS011;3362;50.892;10.692;2023-04-24T10:33:20;1.63;;;0.90;;
6651;SDS011;3362;50.892;10.692;2023-04-24T10:35:47;1.00;;;0.63;;
6651;SDS011;3362;50.892;10.692;2023-04-24T10:38:16;3.15;;;1.35;;
6651;SDS011;3362;50.892;10.692;2023-04-24T10:40:43;0.75;;;0.75;;
6651;SDS011;3362;50.892;10.692;2023-04-24T10:43:09;1.20;;;0.98;;
6651;SDS011;3362;50.892;10.692;2023-04-24T10:45:36;1.52;;;1.17;;
6651;SDS011;3362;50.892;10.692;2023-04-24T10:48:04;2.00;;;1.10;;
6651;SDS011;3362;50.892;10.692;2023-04-24T10:50:42;0.65;;;0.65;;
6651;SDS011;3362;50.892;10.692;2023-04-24T10:53:12;0.82;;;0.73;;
6651;SDS011;3362;50.892;10.692;2023-04-24T10:55:45;1.27;;;1.02;;
6651;SDS011;3362;50.892;10.692;2023-04-24T10:58:12;2.03;;;1.00;;
6651;SDS011;3362;50.892;10.692;2023-04-24T11:00:40;3.63;;;0.93;;
6651;SDS011;3362;50.892;10.692;2023-04-24T11:03:09;1.65;;;1.02;;
6651;SDS011;3362;50.892;10.692;2023-04-24T11:08:36;1.00;;;0.80;;
6651;SDS011;3362;50.892;10.692;2023-04-24T11:11:03;2.58;;;0.90;;
6651;SDS011;3362;50.892;10.692;2023-04-24T11:16:25;1.20;;;1.00;;
6651;SDS011;3362;50.892;10.692;2023-04-24T11:18:59;1.45;;;0.80;;
6651;SDS011;3362;50.892;10.692;2023-04-24T11:21:28;1.30;;;1.10;;
6651;SDS011;3362;50.892;10.692;2023-04-24T11:23:56;1.70;;;0.95;;
6651;SDS011;3362;50.892;10.692;2023-04-24T11:26:22;0.93;;;0.80;;
6651;SDS011;3362;50.892;10.692;2023-04-24T11:28:50;1.23;;;1.00;;
6651;SDS011;3362;50.892;10.692;2023-04-24T11:34:08;2.13;;;1.08;;
6651;SDS011;3362;50.892;10.692;2023-04-24T11:36:35;0.90;;;0.80;;
6651;SDS011;3362;50.892;10.692;2023-04-24T11:39:01;1.23;;;0.85;;
6651;SDS011;3362;50.892;10.692;2023-04-24T11:41:28;1.05;;;0.90;;
6651;SDS011;3362;50.892;10.692;2023-04-24T11:43:54;1.95;;;0.82;;
6651;SDS011;3362;50.892;10.692;2023-04-24T11:46:21;1.58;;;1.05;;
6651;SDS011;3362;50.892;10.692;2023-04-24T11:48:47;3.42;;;0.88;;
6651;SDS011;3362;50.892;10.692;2023-04-24T11:51:15;0.60;;;0.60;;
6651;SDS011;3362;50.892;10.692;2023-04-24T11:53:41;1.27;;;0.80;;
6651;SDS011;3362;50.892;10.692;2023-04-24T11:56:08;0.77;;;0.77;;
6651;SDS011;3362;50.892;10.692;2023-04-24T11:58:34;0.65;;;0.65;;
6651;SDS011;3362;50.892;10.692;2023-04-24T12:01:00;1.10;;;0.70;;
6651;SDS011;3362;50.892;10.692;2023-04-24T12:03:27;1.08;;;0.88;;
6651;SDS011;3362;50.892;10.692;2023-04-24T12:05:53;0.80;;;0.60;;
6651;SDS011;3362;50.892;10.692;2023-04-24T12:08:31;0.70;;;0.70;;
6651;SDS011;3362;50.892;10.692;2023-04-24T12:10:57;1.33;;;0.80;;
6651;SDS011;3362;50.892;10.692;2023-04-24T12:13:25;0.55;;;0.50;;
6651;SDS011;3362;50.892;10.692;2023-04-24T12:15:51;4.25;;;0.73;;
6651;SDS011;3362;50.892;10.692;2023-04-24T12:18:17;0.90;;;0.50;;
6651;SDS011;3362;50.892;10.692;2023-04-24T12:20:43;2.13;;;0.60;;
6651;SDS011;3362;50.892;10.692;2023-04-24T12:23:10;1.33;;;0.70;;
6651;SDS011;3362;50.892;10.692;2023-04-24T12:25:38;0.70;;;0.60;;
6651;SDS011;3362;50.892;10.692;2023-04-24T12:28:09;0.98;;;0.77;;
6651;SDS011;3362;50.892;10.692;2023-04-24T12:30:38;0.50;;;0.43;;
6651;SDS011;3362;50.892;10.692;2023-04-24T12:33:05;0.75;;;0.60;;
6651;SDS011;3362;50.892;10.692;2023-04-24T12:35:32;1.17;;;0.65;;
6651;SDS011;3362;50.892;10.692;2023-04-24T12:38:04;0.65;;;0.50;;
6651;SDS011;3362;50.892;10.692;2023-04-24T12:40:31;0.60;;;0.60;;
6651;SDS011;3362;50.892;10.692;2023-04-24T12:42:58;0.90;;;0.88;;
6651;SDS011;3362;50.892;10.692;2023-04-24T12:45:24;0.80;;;0.80;;
6651;SDS011;3362;50.892;10.692;2023-04-24T12:47:52;4.15;;;0.82;;
6651;SDS011;3362;50.892;10.692;2023-04-24T12:50:19;2.25;;;1.15;;
6651;SDS011;3362;50.892;10.692;2023-04-24T12:52:45;0.85;;;0.55;;
6651;SDS011;3362;50.892;10.692;2023-04-24T12:55:11;0.60;;;0.60;;
6651;SDS011;3362;50.892;10.692;2023-04-24T12:57:38;0.70;;;0.55;;
6651;SDS011;3362;50.892;10.692;2023-04-24T13:00:07;1.63;;;0.47;;
6651;SDS011;3362;50.892;10.692;2023-04-24T13:02:33;0.30;;;0.30;;
6651;SDS011;3362;50.892;10.692;2023-04-24T13:05:00;0.40;;;0.40;;
6651;SDS011;3362;50.892;10.692;2023-04-24T13:07:27;0.30;;;0.30;;
6651;SDS011;3362;50.892;10.692;2023-04-24T13:09:54;0.50;;;0.47;;
6651;SDS011;3362;50.892;10.692;2023-04-24T13:12:21;0.40;;;0.20;;
6651;SDS011;3362;50.892;10.692;2023-04-24T13:14:48;0.38;;;0.35;;
6651;SDS011;3362;50.892;10.692;2023-04-24T13:17:16;0.38;;;0.38;;
6651;SDS011;3362;50.892;10.692;2023-04-24T13:19:43;0.40;;;0.40;;
6651;SDS011;3362;50.892;10.692;2023-04-24T13:22:10;0.40;;;0.40;;
6651;SDS011;3362;50.892;10.692;2023-04-24T13:24:36;0.95;;;0.32;;
6651;SDS011;3362;50.892;10.692;2023-04-24T13:27:04;0.28;;;0.28;;
6651;SDS011;3362;50.892;10.692;2023-04-24T13:29:31;0.40;;;0.35;;
6651;SDS011;3362;50.892;10.692;2023-04-24T13:31:57;0.65;;;0.40;;
6651;SDS011;3362;50.892;10.692;2023-04-24T13:34:25;0.20;;;0.20;;
6651;SDS011;3362;50.892;10.692;2023-04-24T13:36:52;0.20;;;0.20;;
6651;SDS011;3362;50.892;10.692;2023-04-24T13:39:19;0.22;;;0.20;;
6651;SDS011;3362;50.892;10.692;2023-04-24T13:41:45;0.40;;;0.30;;
6651;SDS011;3362;50.892;10.692;2023-04-24T13:44:12;0.20;;;0.20;;
6651;SDS011;3362;50.892;10.692;2023-04-24T13:46:39;0.28;;;0.15;;
6651;SDS011;3362;50.892;10.692;2023-04-24T13:49:05;0.85;;;0.10;;
6651;SDS011;3362;50.892;10.692;2023-04-24T13:51:32;0.40;;;0.22;;
6651;SDS011;3362;50.892;10.692;2023-04-24T13:53:59;0.10;;;0.10;;
6651;SDS011;3362;50.892;10.692;2023-04-24T13:56:25;0.10;;;0.10;;
6651;SDS011;3362;50.892;10.692;2023-04-24T13:58:51;0.10;;;0.10;;
6651;SDS011;3362;50.892;10.692;2023-04-24T14:01:18;0.20;;;0.10;;
6651;SDS011;3362;50.892;10.692;2023-04-24T14:03:46;0.03;;;0.03;;
6651;SDS011;3362;50.892;10.692;2023-04-24T14:06:12;0.40;;;0.10;;
6651;SDS011;3362;50.892;10.692;2023-04-24T14:08:40;0.70;;;0.20;;
6651;SDS011;3362;50.892;10.692;2023-04-24T14:11:06;0.13;;;0.13;;
6651;SDS011;3362;50.892;10.692;2023-04-24T14:13:32;0.00;;;0.00;;
6651;SDS011;3362;50.892;10.692;2023-04-24T14:15:58;0.20;;;0.20;;
6651;SDS011;3362;50.892;10.692;2023-04-24T14:18:25;0.50;;;0.30;;
6651;SDS011;3362;50.892;10.692;2023-04-24T14:20:51;0.32;;;0.10;;
6651;SDS011;3362;50.892;10.692;2023-04-24T14:23:18;0.10;;;0.10;;
6651;SDS011;3362;50.892;10.692;2023-04-24T14:25:46;0.10;;;0.10;;
6651;SDS011;3362;50.892;10.692;2023-04-24T14:28:15;0.50;;;0.28;;
6651;SDS011;3362;50.892;10.692;2023-04-24T14:30:42;0.10;;;0.10;;
6651;SDS011;3362;50.892;10.692;2023-04-24T14:33:08;0.10;;;0.10;;
6651;SDS011;3362;50.892;10.692;2023-04-24T14:35:35;0.13;;;0.10;;
6651;SDS011;3362;50.892;10.692;2023-04-24T14:38:01;0.20;;;0.20;;
6651;SDS011;3362;50.892;10.692;2023-04-24T14:40:28;1.40;;;0.43;;
6651;SDS011;3362;50.892;10.692;2023-04-24T14:42:56;0.28;;;0.28;;
6651;SDS011;3362;50.892;10.692;2023-04-24T14:45:23;0.17;;;0.17;;
6651;SDS011;3362;50.892;10.692;2023-04-24T14:47:49;0.13;;;0.13;;
6651;SDS011;3362;50.892;10.692;2023-04-24T14:50:15;0.17;;;0.17;;
6651;SDS011;3362;50.892;10.692;2023-04-24T14:52:41;0.30;;;0.30;;
6651;SDS011;3362;50.892;10.692;2023-04-24T14:55:08;1.98;;;0.30;;
6651;SDS011;3362;50.892;10.692;2023-04-24T14:57:34;0.10;;;0.10;;
6651;SDS011;3362;50.892;10.692;2023-04-24T15:00:02;0.10;;;0.10;;
6651;SDS011;3362;50.892;10.692;2023-04-24T15:02:31;0.47;;;0.30;;
6651;SDS011;3362;50.892;10.692;2023-04-24T15:04:57;0.68;;;0.30;;
6651;SDS011;3362;50.892;10.692;2023-04-24T15:07:23;0.52;;;0.22;;